createdAt,value
2022-10-03T00:00:21.521Z,46.38
2022-10-03T00:01:21.606Z,57.72
2022-10-03T00:02:21.503Z,52.49
2022-10-03T00:03:21.493Z,54.41
2022-10-03T00:04:21.487Z,53.89
2022-10-03T00:05:21.482Z,55.46
2022-10-03T00:06:21.502Z,57.23
2022-10-03T00:07:21.459Z,60.75
2022-10-03T00:08:21.457Z,56.96
2022-10-03T00:09:21.449Z,54.92
2022-10-03T00:10:21.436Z,43.13
2022-10-03T00:11:21.454Z,44.61
2022-10-03T00:12:21.423Z,44.39
2022-10-03T00:13:21.419Z,46.31
2022-10-03T00:14:21.405Z,40.30
2022-10-03T00:15:21.396Z,44.32
2022-10-03T00:16:21.457Z,42.98
2022-10-03T00:17:22.381Z,43.74
2022-10-03T00:18:21.373Z,48.09
2022-10-03T00:19:21.379Z,41.46
2022-10-03T00:20:21.367Z,43.78
2022-10-03T00:21:21.378Z,49.20
2022-10-03T00:22:21.351Z,40.83
2022-10-03T00:23:21.339Z,43.35
2022-10-03T00:24:21.348Z,40.78
2022-10-03T00:25:21.347Z,40.77
2022-10-03T00:26:21.314Z,40.83
2022-10-03T00:27:21.305Z,40.97
2022-10-03T00:28:21.387Z,40.96
2022-10-03T00:29:21.297Z,40.93
2022-10-03T00:30:21.309Z,40.29
2022-10-03T00:31:21.356Z,40.81
2022-10-03T00:32:21.262Z,49.39
2022-10-03T00:33:21.259Z,49.22
2022-10-03T00:34:21.250Z,46.88
2022-10-03T00:35:21.264Z,41.10
2022-10-03T00:36:21.240Z,40.22
2022-10-03T00:37:21.226Z,46.22
2022-10-03T00:38:21.225Z,45.39
2022-10-03T00:39:21.209Z,43.75
2022-10-03T00:40:21.228Z,46.28
2022-10-03T00:41:21.195Z,45.80
2022-10-03T00:42:21.191Z,46.59
2022-10-03T00:43:21.177Z,41.52
2022-10-03T00:44:21.169Z,46.86
2022-10-03T00:45:21.195Z,48.49
2022-10-03T00:46:21.188Z,45.63
2022-10-03T00:47:21.202Z,41.15
2022-10-03T00:48:21.168Z,40.79
2022-10-03T00:49:21.138Z,40.89
2022-10-03T00:50:21.160Z,43.94
2022-10-03T00:51:21.118Z,44.46
2022-10-03T00:52:21.112Z,40.98
2022-10-03T00:53:21.107Z,44.70
2022-10-03T00:54:21.097Z,47.22
2022-10-03T00:55:21.088Z,51.95
2022-10-03T00:56:21.110Z,43.69
2022-10-03T00:57:21.079Z,46.76
2022-10-03T00:58:21.072Z,46.89
2022-10-03T00:59:21.066Z,50.33
2022-10-03T01:00:21.063Z,41.08
2022-10-03T01:01:21.165Z,46.89
2022-10-03T01:02:21.126Z,43.89
2022-10-03T01:03:21.034Z,42.09
2022-10-03T01:04:21.019Z,46.43
2022-10-03T01:05:21.011Z,50.20
2022-10-03T01:06:21.034Z,45.21
2022-10-03T01:07:20.998Z,40.72
2022-10-03T01:08:20.989Z,41.00
2022-10-03T01:09:20.986Z,47.22
2022-10-03T01:10:20.977Z,55.42
2022-10-03T01:11:20.993Z,41.88
2022-10-03T01:12:20.954Z,38.74
2022-10-03T01:13:20.947Z,41.18
2022-10-03T01:14:20.943Z,51.47
2022-10-03T01:15:20.944Z,53.33
2022-10-03T01:16:21.051Z,42.96
2022-10-03T01:17:20.924Z,41.04
2022-10-03T01:18:20.916Z,41.60
2022-10-03T01:19:20.908Z,45.68
2022-10-03T01:20:20.901Z,53.69
2022-10-03T01:21:20.926Z,56.52
2022-10-03T01:22:20.879Z,55.98
2022-10-03T01:23:20.875Z,58.08
2022-10-03T01:24:20.871Z,56.59
2022-10-03T01:25:20.871Z,56.72
2022-10-03T01:26:20.884Z,54.13
2022-10-03T01:27:20.851Z,39.53
2022-10-03T01:28:20.906Z,39.18
2022-10-03T01:29:20.834Z,42.24
2022-10-03T01:30:20.823Z,39.83
2022-10-03T01:31:20.869Z,39.92
2022-10-03T01:32:20.820Z,39.05
2022-10-03T01:33:20.810Z,40.21
2022-10-03T01:34:20.796Z,40.88
2022-10-03T01:35:20.789Z,46.09
2022-10-03T01:36:20.800Z,52.45
2022-10-03T01:37:20.786Z,52.44
2022-10-03T01:38:20.787Z,41.92
2022-10-03T01:39:20.753Z,40.27
2022-10-03T01:40:20.752Z,43.14
2022-10-03T01:41:20.766Z,39.56
2022-10-03T01:42:20.742Z,47.54
2022-10-03T01:43:20.733Z,41.67
2022-10-03T01:44:20.718Z,55.67
2022-10-03T01:45:20.708Z,42.87
2022-10-03T01:46:20.790Z,40.31
2022-10-03T01:47:20.692Z,40.42
2022-10-03T01:48:20.684Z,44.09
2022-10-03T01:49:20.677Z,42.76
2022-10-03T01:50:20.707Z,47.80
2022-10-03T01:51:20.664Z,39.89
2022-10-03T01:52:20.656Z,43.21
2022-10-03T01:53:20.645Z,40.71
2022-10-03T01:54:20.649Z,41.47
2022-10-03T01:55:20.660Z,48.17
2022-10-03T01:56:20.629Z,52.22
2022-10-03T01:57:20.617Z,52.16
2022-10-03T01:58:20.616Z,52.52
2022-10-03T01:59:20.608Z,53.32
2022-10-03T02:00:20.672Z,55.64
2022-10-03T02:01:20.678Z,58.68
2022-10-03T02:02:20.598Z,57.67
2022-10-03T02:03:20.581Z,56.93
2022-10-03T02:04:20.570Z,56.65
2022-10-03T02:05:20.589Z,56.37
2022-10-03T02:06:20.563Z,56.27
2022-10-03T02:07:20.545Z,57.11
2022-10-03T02:08:20.542Z,56.30
2022-10-03T02:09:20.568Z,56.00
2022-10-03T02:10:20.525Z,55.98
2022-10-03T02:11:20.517Z,42.39
2022-10-03T02:12:20.511Z,41.86
2022-10-03T02:13:20.500Z,44.17
2022-10-03T02:14:20.524Z,44.76
2022-10-03T02:15:20.492Z,41.45
2022-10-03T02:16:20.523Z,40.37
2022-10-03T02:17:20.474Z,44.13
2022-10-03T02:18:20.460Z,50.46
2022-10-03T02:19:20.504Z,40.61
2022-10-03T02:20:20.458Z,44.41
2022-10-03T02:21:20.443Z,40.96
2022-10-03T02:22:20.460Z,40.76
2022-10-03T02:23:20.422Z,40.72
2022-10-03T02:24:20.416Z,43.24
2022-10-03T02:25:20.433Z,40.06
2022-10-03T02:26:20.403Z,42.51
2022-10-03T02:27:20.395Z,39.68
2022-10-03T02:28:20.504Z,42.06
2022-10-03T02:29:20.377Z,43.07
2022-10-03T02:30:20.395Z,39.78
2022-10-03T02:31:20.397Z,46.73
2022-10-03T02:32:20.354Z,43.68
2022-10-03T02:33:20.344Z,40.94
2022-10-03T02:34:20.343Z,56.32
2022-10-03T02:35:20.357Z,41.95
2022-10-03T02:36:20.324Z,44.98
2022-10-03T02:37:20.319Z,42.92
2022-10-03T02:38:20.302Z,40.03
2022-10-03T02:39:20.306Z,43.72
2022-10-03T02:40:20.315Z,40.61
2022-10-03T02:41:20.284Z,40.22
2022-10-03T02:42:20.269Z,41.40
2022-10-03T02:43:20.267Z,42.23
2022-10-03T02:44:20.262Z,51.36
2022-10-03T02:45:20.336Z,46.88
2022-10-03T02:46:20.254Z,40.66
2022-10-03T02:47:20.237Z,43.77
2022-10-03T02:48:31.384Z,41.29
2022-10-03T02:49:22.221Z,41.94
2022-10-03T02:50:20.245Z,54.18
2022-10-03T02:51:20.208Z,43.60
2022-10-03T02:52:20.204Z,43.91
2022-10-03T02:53:20.207Z,43.58
2022-10-03T02:54:20.206Z,44.57
2022-10-03T02:55:20.210Z,40.79
2022-10-03T02:56:20.179Z,40.71
2022-10-03T02:57:20.160Z,41.58
2022-10-03T02:58:20.171Z,47.83
2022-10-03T02:59:20.149Z,45.77
2022-10-03T03:00:20.170Z,42.75
2022-10-03T03:01:20.196Z,41.94
2022-10-03T03:02:20.201Z,46.92
2022-10-03T03:03:20.126Z,50.01
2022-10-03T03:04:20.119Z,47.44
2022-10-03T03:05:20.144Z,46.81
2022-10-03T03:06:20.103Z,46.45
2022-10-03T03:07:20.108Z,43.35
2022-10-03T03:08:20.085Z,45.97
2022-10-03T03:09:20.081Z,52.63
2022-10-03T03:10:20.107Z,43.41
2022-10-03T03:11:20.069Z,40.25
2022-10-03T03:12:20.058Z,43.48
2022-10-03T03:13:20.048Z,43.73
2022-10-03T03:14:20.042Z,44.91
2022-10-03T03:15:20.037Z,41.24
2022-10-03T03:16:20.087Z,44.81
2022-10-03T03:17:21.017Z,46.00
2022-10-03T03:18:20.011Z,45.72
2022-10-03T03:19:20.005Z,47.44
2022-10-03T03:20:19.998Z,43.30
2022-10-03T03:21:20.020Z,47.47
2022-10-03T03:22:19.981Z,40.77
2022-10-03T03:23:19.977Z,50.48
2022-10-03T03:24:19.982Z,44.88
2022-10-03T03:25:19.950Z,47.99
2022-10-03T03:26:20.973Z,44.37
2022-10-03T03:27:19.950Z,44.00
2022-10-03T03:28:19.966Z,44.10
2022-10-03T03:29:19.928Z,48.67
2022-10-03T03:30:19.918Z,44.12
2022-10-03T03:31:19.976Z,54.03
2022-10-03T03:32:19.907Z,53.73
2022-10-03T03:33:19.910Z,55.90
2022-10-03T03:34:19.894Z,56.63
2022-10-03T03:35:19.885Z,55.52
2022-10-03T03:36:19.898Z,57.10
2022-10-03T03:37:19.880Z,57.67
2022-10-03T03:38:19.864Z,49.11
2022-10-03T03:39:19.853Z,54.38
2022-10-03T03:40:19.848Z,50.95
2022-10-03T03:41:19.879Z,43.54
2022-10-03T03:42:19.830Z,48.70
2022-10-03T03:43:19.834Z,45.01
2022-10-03T03:44:19.822Z,43.43
2022-10-03T03:45:19.944Z,43.23
2022-10-03T03:46:19.834Z,46.11
2022-10-03T03:47:19.799Z,44.22
2022-10-03T03:48:19.788Z,49.80
2022-10-03T03:49:19.797Z,44.85
2022-10-03T03:50:19.775Z,46.48
2022-10-03T03:51:19.799Z,48.19
2022-10-03T03:52:19.761Z,45.53
2022-10-03T03:53:19.753Z,50.30
2022-10-03T03:54:19.747Z,55.38
2022-10-03T03:55:19.739Z,55.68
2022-10-03T03:56:19.758Z,55.77
2022-10-03T03:57:52.438Z,58.04
2022-10-03T03:58:19.709Z,57.74
2022-10-03T03:59:19.701Z,56.95
2022-10-03T04:00:19.701Z,56.98
2022-10-03T04:01:19.796Z,57.29
2022-10-03T04:02:19.727Z,57.72
2022-10-03T04:03:19.684Z,57.80
2022-10-03T04:04:19.670Z,57.04
2022-10-03T04:05:19.658Z,57.22
2022-10-03T04:06:19.677Z,57.48
2022-10-03T04:07:21.817Z,57.05
2022-10-03T04:08:20.635Z,56.80
2022-10-03T04:09:19.624Z,59.88
2022-10-03T04:10:20.616Z,57.16
2022-10-03T04:11:19.645Z,56.42
2022-10-03T04:12:19.611Z,56.60
2022-10-03T04:13:19.600Z,59.98
2022-10-03T04:14:19.594Z,43.89
2022-10-03T04:15:19.589Z,41.65
2022-10-03T04:16:19.629Z,39.25
2022-10-03T04:17:19.576Z,44.15
2022-10-03T04:18:19.578Z,44.79
2022-10-03T04:19:19.563Z,40.09
2022-10-03T04:20:19.547Z,44.43
2022-10-03T04:21:19.571Z,41.62
2022-10-03T04:22:19.545Z,44.11
2022-10-03T04:23:19.533Z,44.24
2022-10-03T04:24:19.527Z,41.27
2022-10-03T04:25:19.519Z,43.42
2022-10-03T04:26:19.537Z,40.79
2022-10-03T04:27:19.500Z,46.01
2022-10-03T04:28:19.640Z,48.04
2022-10-03T04:29:19.492Z,52.59
2022-10-03T04:30:19.483Z,49.41
2022-10-03T04:31:19.559Z,41.56
2022-10-03T04:32:19.466Z,44.02
2022-10-03T04:33:19.459Z,43.02
2022-10-03T04:34:19.447Z,44.32
2022-10-03T04:35:19.441Z,48.89
2022-10-03T04:36:19.469Z,46.61
2022-10-03T04:37:19.422Z,50.31
2022-10-03T04:38:19.417Z,43.39
2022-10-03T04:39:19.417Z,55.97
2022-10-03T04:40:19.408Z,51.66
2022-10-03T04:41:19.446Z,48.20
2022-10-03T04:42:19.388Z,45.98
2022-10-03T04:43:19.387Z,50.15
2022-10-03T04:44:19.377Z,49.39
2022-10-03T04:45:19.373Z,48.90
2022-10-03T04:46:19.410Z,46.62
2022-10-03T04:47:19.381Z,48.46
2022-10-03T04:48:19.349Z,49.55
2022-10-03T04:49:19.349Z,50.29
2022-10-03T04:50:19.326Z,45.75
2022-10-03T04:51:19.337Z,47.47
2022-10-03T04:52:19.341Z,46.91
2022-10-03T04:53:19.341Z,44.94
2022-10-03T04:54:19.302Z,45.95
2022-10-03T04:55:19.302Z,46.24
2022-10-03T04:56:19.290Z,41.87
2022-10-03T04:57:19.287Z,41.62
2022-10-03T04:58:19.299Z,46.50
2022-10-03T04:59:19.267Z,41.37
2022-10-03T05:00:19.259Z,41.30
2022-10-03T05:01:19.267Z,43.74
2022-10-03T05:02:19.285Z,42.92
2022-10-03T05:03:19.271Z,44.29
2022-10-03T05:04:19.223Z,45.66
2022-10-03T05:05:19.233Z,47.87
2022-10-03T05:06:19.210Z,56.98
2022-10-03T05:07:19.212Z,57.85
2022-10-03T05:08:19.223Z,49.09
2022-10-03T05:09:19.196Z,44.48
2022-10-03T05:10:19.186Z,45.04
2022-10-03T05:11:19.180Z,43.30
2022-10-03T05:12:19.168Z,49.31
2022-10-03T05:13:19.194Z,45.54
2022-10-03T05:14:19.151Z,44.44
2022-10-03T05:15:19.148Z,48.87
2022-10-03T05:16:19.199Z,50.05
2022-10-03T05:17:19.130Z,46.32
2022-10-03T05:18:22.277Z,45.27
2022-10-03T05:19:20.114Z,53.38
2022-10-03T05:20:19.237Z,55.24
2022-10-03T05:21:19.116Z,51.87
2022-10-03T05:22:19.116Z,54.56
2022-10-03T05:23:19.184Z,56.03
2022-10-03T05:24:19.096Z,53.66
2022-10-03T05:25:19.125Z,52.25
2022-10-03T05:26:43.465Z,52.23
2022-10-03T05:27:21.081Z,52.44
2022-10-03T05:28:19.201Z,52.56
2022-10-03T05:29:19.125Z,53.22
2022-10-03T05:30:19.059Z,52.49
2022-10-03T05:31:19.093Z,42.66
2022-10-03T05:32:19.047Z,46.75
2022-10-03T05:33:19.061Z,45.08
2022-10-03T05:34:19.025Z,44.76
2022-10-03T05:35:19.031Z,44.85
2022-10-03T05:36:19.020Z,43.90
2022-10-03T05:37:19.003Z,57.24
2022-10-03T05:38:19.046Z,48.29
2022-10-03T05:39:19.054Z,48.86
2022-10-03T05:40:19.002Z,44.66
2022-10-03T05:41:22.678Z,56.95
2022-10-03T05:42:23.853Z,50.24
2022-10-03T05:43:20.251Z,47.30
2022-10-03T05:44:18.952Z,49.74
2022-10-03T05:45:18.914Z,46.57
2022-10-03T05:46:18.956Z,45.64
2022-10-03T05:47:18.926Z,44.47
2022-10-03T05:48:19.142Z,51.28
2022-10-03T05:49:18.898Z,55.60
2022-10-03T05:50:18.896Z,48.34
2022-10-03T05:51:18.889Z,47.89
2022-10-03T05:52:18.882Z,48.73
2022-10-03T05:53:18.988Z,47.49
2022-10-03T05:54:18.865Z,43.03
2022-10-03T05:55:19.857Z,47.82
2022-10-03T05:56:18.837Z,41.78
2022-10-03T05:57:18.844Z,42.23
2022-10-03T05:58:18.856Z,45.81
2022-10-03T05:59:18.854Z,43.84
2022-10-03T06:00:18.815Z,46.04
2022-10-03T06:01:18.830Z,49.10
2022-10-03T06:02:18.912Z,49.43
2022-10-03T06:03:18.850Z,54.11
2022-10-03T06:04:18.781Z,45.56
2022-10-03T06:05:18.769Z,46.10
2022-10-03T06:06:18.780Z,46.52
2022-10-03T06:07:18.784Z,47.00
2022-10-03T06:08:19.590Z,48.09
2022-10-03T06:09:18.725Z,47.64
2022-10-03T06:10:18.724Z,41.67
2022-10-03T06:11:18.824Z,42.61
2022-10-03T06:12:18.729Z,43.89
2022-10-03T06:13:18.703Z,43.64
2022-10-03T06:14:18.693Z,46.71
2022-10-03T06:15:18.700Z,44.30
2022-10-03T06:16:19.661Z,45.04
2022-10-03T06:17:18.668Z,47.00
2022-10-03T06:18:18.837Z,44.79
2022-10-03T06:19:18.682Z,47.30
2022-10-03T06:20:18.647Z,45.76
2022-10-03T06:21:18.632Z,50.65
2022-10-03T06:22:18.633Z,52.28
2022-10-03T06:23:18.653Z,44.53
2022-10-03T06:24:18.612Z,48.25
2022-10-03T06:25:18.613Z,47.78
2022-10-03T06:26:18.601Z,41.20
2022-10-03T06:27:18.695Z,41.46
2022-10-03T06:28:18.627Z,45.71
2022-10-03T06:29:18.586Z,41.73
2022-10-03T06:30:18.602Z,48.11
2022-10-03T06:31:18.617Z,56.86
2022-10-03T06:32:18.589Z,44.02
2022-10-03T06:33:18.559Z,50.17
2022-10-03T06:34:18.614Z,49.62
2022-10-03T06:35:18.533Z,56.71
2022-10-03T06:36:18.568Z,55.13
2022-10-03T06:37:18.590Z,54.32
2022-10-03T06:38:18.518Z,45.34
2022-10-03T06:39:18.502Z,47.76
2022-10-03T06:40:18.498Z,50.34
2022-10-03T06:41:18.492Z,49.03
2022-10-03T06:42:18.522Z,50.28
2022-10-03T06:43:18.522Z,45.52
2022-10-03T06:44:18.469Z,45.45
2022-10-03T06:45:18.456Z,54.86
2022-10-03T06:46:18.493Z,57.17
2022-10-03T06:47:18.438Z,55.37
2022-10-03T06:48:18.477Z,58.45
2022-10-03T06:49:18.469Z,57.88
2022-10-03T06:50:18.425Z,57.24
2022-10-03T06:51:18.634Z,57.28
2022-10-03T06:52:18.404Z,49.95
2022-10-03T06:53:18.421Z,49.61
2022-10-03T06:54:18.387Z,42.60
2022-10-03T06:55:18.374Z,56.05
2022-10-03T06:56:18.372Z,48.34
2022-10-03T06:57:18.367Z,46.20
2022-10-03T06:58:18.920Z,52.83
2022-10-03T06:59:18.347Z,56.27
2022-10-03T07:00:18.990Z,50.71
2022-10-03T07:01:18.419Z,44.23
2022-10-03T07:02:18.455Z,51.63
2022-10-03T07:03:18.321Z,46.58
2022-10-03T07:04:18.309Z,43.50
2022-10-03T07:05:18.426Z,47.15
2022-10-03T07:06:18.307Z,46.23
2022-10-03T07:07:18.642Z,51.57
2022-10-03T07:08:18.282Z,48.74
2022-10-03T07:09:18.386Z,45.56
2022-10-03T07:10:18.267Z,50.81
2022-10-03T07:11:18.263Z,48.57
2022-10-03T07:12:18.311Z,46.42
2022-10-03T07:13:18.246Z,50.08
2022-10-03T07:14:18.249Z,49.63
2022-10-03T07:15:18.225Z,47.46
2022-10-03T07:16:26.983Z,47.29
2022-10-03T07:17:20.343Z,49.72
2022-10-03T07:18:18.234Z,43.92
2022-10-03T07:19:18.200Z,48.22
2022-10-03T07:20:18.196Z,47.88
2022-10-03T07:21:18.192Z,52.28
2022-10-03T07:22:18.226Z,51.44
2022-10-03T07:23:18.203Z,49.88
2022-10-03T07:24:19.163Z,52.32
2022-10-03T07:25:18.189Z,50.95
2022-10-03T07:26:18.156Z,52.34
2022-10-03T07:27:18.179Z,45.30
2022-10-03T07:28:18.324Z,51.60
2022-10-03T07:29:18.363Z,51.33
2022-10-03T07:30:18.121Z,48.48
2022-10-03T07:31:18.160Z,49.41
2022-10-03T07:32:18.171Z,47.20
2022-10-03T07:33:18.098Z,49.28
2022-10-03T07:34:18.226Z,48.39
2022-10-03T07:35:18.082Z,50.01
2022-10-03T07:36:18.072Z,51.55
2022-10-03T07:37:18.161Z,42.68
2022-10-03T07:38:18.072Z,47.32
2022-10-03T07:39:18.057Z,54.34
2022-10-03T07:40:18.046Z,54.37
2022-10-03T07:41:18.085Z,53.70
2022-10-03T07:42:18.052Z,54.36
2022-10-03T07:43:18.021Z,56.94
2022-10-03T07:44:18.024Z,50.08
2022-10-03T07:45:17.998Z,51.28
2022-10-03T07:46:18.090Z,51.48
2022-10-03T07:47:18.025Z,51.96
2022-10-03T07:48:17.982Z,49.43
2022-10-03T07:49:18.688Z,52.42
2022-10-03T07:50:18.968Z,51.37
2022-10-03T07:51:17.982Z,54.87
2022-10-03T07:52:17.992Z,56.32
2022-10-03T07:53:17.960Z,51.70
2022-10-03T07:54:18.120Z,49.36
2022-10-03T07:55:17.927Z,47.75
2022-10-03T07:56:17.925Z,51.20
2022-10-03T07:57:17.915Z,50.23
2022-10-03T07:58:17.932Z,48.84
2022-10-03T07:59:17.904Z,49.18
2022-10-03T08:00:17.914Z,51.15
2022-10-03T08:01:17.884Z,48.65
2022-10-03T08:02:17.910Z,48.70
2022-10-03T08:03:17.987Z,52.71
2022-10-03T08:04:17.901Z,53.44
2022-10-03T08:05:17.856Z,44.22
2022-10-03T08:06:17.854Z,53.48
2022-10-03T08:07:17.844Z,54.15
2022-10-03T08:08:17.873Z,50.58
2022-10-03T08:09:17.819Z,47.37
2022-10-03T08:10:17.816Z,51.38
2022-10-03T08:11:17.811Z,46.82
2022-10-03T08:12:17.804Z,51.26
2022-10-03T08:13:17.833Z,51.23
2022-10-03T08:14:17.789Z,49.42
2022-10-03T08:15:17.777Z,55.25
2022-10-03T08:16:17.828Z,54.31
2022-10-03T08:17:17.822Z,54.81
2022-10-03T08:18:17.777Z,46.49
2022-10-03T08:19:17.752Z,53.20
2022-10-03T08:20:17.768Z,52.12
2022-10-03T08:21:17.737Z,50.38
2022-10-03T08:22:17.723Z,57.38
2022-10-03T08:23:17.749Z,52.77
2022-10-03T08:24:17.708Z,55.72
2022-10-03T08:25:17.697Z,51.47
2022-10-03T08:26:17.680Z,59.50
2022-10-03T08:27:18.689Z,52.13
2022-10-03T08:28:17.743Z,52.61
2022-10-03T08:29:18.665Z,53.28
2022-10-03T08:30:17.666Z,54.67
2022-10-03T08:31:17.678Z,51.22
2022-10-03T08:32:17.645Z,45.68
2022-10-03T08:33:17.675Z,50.12
2022-10-03T08:34:17.631Z,53.55
2022-10-03T08:35:17.653Z,52.69
2022-10-03T08:36:17.617Z,51.94
2022-10-03T08:37:17.619Z,51.00
2022-10-03T08:38:17.658Z,49.60
2022-10-03T08:39:17.600Z,53.48
2022-10-03T08:40:17.587Z,54.70
2022-10-03T08:41:17.595Z,49.13
2022-10-03T08:42:17.645Z,52.32
2022-10-03T08:43:17.677Z,50.31
2022-10-03T08:44:17.574Z,51.75
2022-10-03T08:45:17.552Z,53.27
2022-10-03T08:46:17.715Z,58.38
2022-10-03T08:47:18.407Z,58.93
2022-10-03T08:48:17.575Z,54.87
2022-10-03T08:49:17.563Z,55.73
2022-10-03T08:50:17.523Z,51.72
2022-10-03T08:51:17.538Z,48.60
2022-10-03T08:52:17.555Z,53.75
2022-10-03T08:53:17.672Z,55.66
2022-10-03T08:54:17.501Z,53.52
2022-10-03T08:55:17.496Z,53.23
2022-10-03T08:56:17.506Z,52.67
2022-10-03T08:57:17.469Z,51.02
2022-10-03T08:58:17.492Z,49.15
2022-10-03T08:59:17.446Z,53.18
2022-10-03T09:00:17.503Z,72.24
2022-10-03T09:01:17.518Z,63.94
2022-10-03T09:02:17.582Z,50.73
2022-10-03T09:03:36.791Z,54.45
2022-10-03T09:04:19.430Z,52.57
2022-10-03T09:05:17.424Z,56.71
2022-10-03T09:06:17.416Z,56.18
2022-10-03T09:07:18.698Z,48.22
2022-10-03T09:08:18.537Z,53.36
2022-10-03T09:09:17.573Z,55.50
2022-10-03T09:10:17.416Z,50.06
2022-10-03T09:11:17.457Z,52.02
2022-10-03T09:12:17.371Z,50.95
2022-10-03T09:13:17.446Z,52.48
2022-10-03T09:14:17.371Z,54.86
2022-10-03T09:15:17.389Z,51.83
2022-10-03T09:16:18.651Z,49.67
2022-10-03T09:17:18.337Z,46.92
2022-10-03T09:18:17.357Z,53.90
2022-10-03T09:19:17.391Z,48.28
2022-10-03T09:20:17.460Z,54.49
2022-10-03T09:21:17.319Z,51.88
2022-10-03T09:22:17.319Z,47.77
2022-10-03T09:23:17.329Z,50.30
2022-10-03T09:24:17.360Z,51.66
2022-10-03T09:25:17.273Z,54.25
2022-10-03T09:26:17.300Z,60.17
2022-10-03T09:27:17.272Z,47.34
2022-10-03T09:28:19.179Z,55.73
2022-10-03T09:29:17.254Z,51.97
2022-10-03T09:30:17.394Z,48.48
2022-10-03T09:31:17.298Z,52.02
2022-10-03T09:32:17.332Z,55.62
2022-10-03T09:33:17.266Z,48.74
2022-10-03T09:34:17.210Z,52.50
2022-10-03T09:35:17.202Z,55.71
2022-10-03T09:36:17.235Z,50.57
2022-10-03T09:37:17.294Z,51.49
2022-10-03T09:38:17.209Z,54.07
2022-10-03T09:39:17.361Z,55.06
2022-10-03T09:40:17.416Z,51.71
2022-10-03T09:41:18.156Z,53.30
2022-10-03T09:42:17.265Z,52.63
2022-10-03T09:43:17.212Z,53.62
2022-10-03T09:44:17.118Z,50.67
2022-10-03T09:45:17.162Z,54.00
2022-10-03T09:46:17.174Z,51.87
2022-10-03T09:47:17.087Z,47.60
2022-10-03T09:48:17.130Z,50.23
2022-10-03T09:49:17.067Z,55.04
2022-10-03T09:50:17.238Z,51.51
2022-10-03T09:51:17.060Z,47.41
2022-10-03T09:52:17.050Z,57.09
2022-10-03T09:53:17.078Z,53.82
2022-10-03T09:54:17.035Z,53.98
2022-10-03T09:55:17.037Z,51.59
2022-10-03T09:56:17.075Z,50.96
2022-10-03T09:57:29.553Z,52.68
2022-10-03T09:58:16.993Z,52.38
2022-10-03T09:59:17.017Z,52.66
2022-10-03T10:00:17.067Z,54.76
2022-10-03T10:01:17.031Z,50.03
2022-10-03T10:02:16.965Z,54.65
2022-10-03T10:03:16.962Z,50.51
2022-10-03T10:04:22.097Z,50.54
2022-10-03T10:05:17.935Z,51.40
2022-10-03T10:06:17.377Z,52.82
2022-10-03T10:07:16.919Z,48.90
2022-10-03T10:08:16.921Z,55.26
2022-10-03T10:09:16.939Z,54.01
2022-10-03T10:10:16.986Z,50.42
2022-10-03T10:11:16.895Z,53.33
2022-10-03T10:12:16.895Z,51.21
2022-10-03T10:13:16.879Z,49.03
2022-10-03T10:14:16.952Z,52.34
2022-10-03T10:15:16.886Z,55.21
2022-10-03T10:16:16.884Z,52.60
2022-10-03T10:17:16.862Z,54.29
2022-10-03T10:18:16.849Z,52.39
2022-10-03T10:19:16.869Z,50.64
2022-10-03T10:20:16.834Z,52.14
2022-10-03T10:21:16.824Z,55.85
2022-10-03T10:22:16.817Z,46.15
2022-10-03T10:23:16.813Z,52.99
2022-10-03T10:24:16.832Z,52.30
2022-10-03T10:25:16.806Z,51.00
2022-10-03T10:26:16.792Z,50.94
2022-10-03T10:27:16.791Z,50.41
2022-10-03T10:28:16.837Z,54.99
2022-10-03T10:29:16.793Z,48.27
2022-10-03T10:30:16.756Z,52.01
2022-10-03T10:31:16.814Z,52.24
2022-10-03T10:32:21.386Z,53.19
2022-10-03T10:33:18.739Z,53.10
2022-10-03T10:34:16.756Z,54.68
2022-10-03T10:35:16.721Z,52.68
2022-10-03T10:36:16.714Z,53.90
2022-10-03T10:37:16.704Z,54.79
2022-10-03T10:38:16.694Z,52.99
2022-10-03T10:39:17.051Z,49.74
2022-10-03T10:40:16.688Z,55.82
2022-10-03T10:41:16.674Z,52.70
2022-10-03T10:42:16.671Z,52.87
2022-10-03T10:43:16.652Z,54.14
2022-10-03T10:44:16.681Z,52.29
2022-10-03T10:45:16.649Z,53.76
2022-10-03T10:46:16.692Z,55.41
2022-10-03T10:47:16.623Z,54.12
2022-10-03T10:48:16.625Z,46.46
2022-10-03T10:49:16.610Z,51.38
2022-10-03T10:50:16.640Z,52.15
2022-10-03T10:51:16.595Z,54.64
2022-10-03T10:52:16.590Z,56.34
2022-10-03T10:53:16.601Z,58.26
2022-10-03T10:54:16.600Z,54.39
2022-10-03T10:55:16.572Z,56.54
2022-10-03T10:56:16.553Z,54.08
2022-10-03T10:57:16.552Z,56.27
2022-10-03T10:58:16.541Z,52.03
2022-10-03T10:59:16.558Z,54.73
2022-10-03T11:00:16.542Z,54.60
2022-10-03T11:01:16.561Z,51.25
2022-10-03T11:02:16.513Z,50.91
2022-10-03T11:03:16.501Z,54.32
2022-10-03T11:04:16.563Z,49.77
2022-10-03T11:05:16.492Z,49.55
2022-10-03T11:06:16.481Z,51.54
2022-10-03T11:07:16.476Z,52.03
2022-10-03T11:08:16.463Z,49.55
2022-10-03T11:09:16.492Z,51.73
2022-10-03T11:10:16.452Z,50.85
2022-10-03T11:11:16.453Z,53.43
2022-10-03T11:12:16.437Z,53.44
2022-10-03T11:13:16.432Z,52.42
2022-10-03T11:14:16.419Z,49.20
2022-10-03T11:15:16.442Z,56.50
2022-10-03T11:16:16.482Z,52.70
2022-10-03T11:17:16.396Z,53.78
2022-10-03T11:18:16.422Z,55.08
2022-10-03T11:19:16.383Z,53.22
2022-10-03T11:20:16.408Z,49.15
2022-10-03T11:21:16.369Z,51.74
2022-10-03T11:22:16.359Z,57.20
2022-10-03T11:23:16.353Z,52.42
2022-10-03T11:24:16.349Z,55.09
2022-10-03T11:25:16.361Z,50.63
2022-10-03T11:26:16.324Z,52.47
2022-10-03T11:27:16.321Z,51.86
2022-10-03T11:28:18.881Z,54.88
2022-10-03T11:29:17.307Z,53.69
2022-10-03T11:30:16.334Z,50.40
2022-10-03T11:31:16.318Z,56.40
2022-10-03T11:32:16.279Z,53.70
2022-10-03T11:33:16.270Z,49.62
2022-10-03T11:34:16.258Z,55.35
2022-10-03T11:35:16.297Z,55.38
2022-10-03T11:36:16.246Z,53.10
2022-10-03T11:37:16.242Z,54.52
2022-10-03T11:38:16.285Z,54.27
2022-10-03T11:39:16.225Z,52.91
2022-10-03T11:40:16.246Z,52.92
2022-10-03T11:41:16.237Z,55.00
2022-10-03T11:42:16.200Z,50.57
2022-10-03T11:43:16.207Z,53.06
2022-10-03T11:44:16.215Z,58.80
2022-10-03T11:45:16.174Z,54.38
2022-10-03T11:46:16.249Z,50.13
2022-10-03T11:47:16.158Z,51.68
2022-10-03T11:48:16.148Z,53.01
2022-10-03T11:49:16.164Z,56.41
2022-10-03T11:50:16.137Z,54.06
2022-10-03T11:51:16.122Z,50.76
2022-10-03T11:52:16.116Z,54.92
2022-10-03T11:53:16.117Z,52.87
2022-10-03T11:54:30.415Z,49.22
2022-10-03T11:55:18.097Z,58.40
2022-10-03T11:56:16.083Z,53.11
2022-10-03T11:57:16.084Z,48.87
2022-10-03T11:58:16.070Z,53.56
2022-10-03T11:59:16.063Z,53.15
2022-10-03T12:00:16.083Z,52.26
2022-10-03T12:01:16.049Z,50.58
2022-10-03T12:02:16.103Z,51.98
2022-10-03T12:03:16.116Z,53.26
2022-10-03T12:04:16.099Z,50.24
2022-10-03T12:05:16.042Z,52.40
2022-10-03T12:06:16.015Z,53.70
2022-10-03T12:07:17.622Z,50.83
2022-10-03T12:08:17.018Z,52.59
2022-10-03T12:09:15.989Z,54.52
2022-10-03T12:10:16.011Z,59.77
2022-10-03T12:11:15.972Z,52.12
2022-10-03T12:12:15.969Z,55.21
2022-10-03T12:13:15.955Z,52.74
2022-10-03T12:14:15.953Z,53.24
2022-10-03T12:15:15.967Z,51.01
2022-10-03T12:16:16.015Z,57.44
2022-10-03T12:17:15.964Z,55.06
2022-10-03T12:18:15.925Z,55.24
2022-10-03T12:19:15.916Z,55.15
2022-10-03T12:20:15.931Z,55.37
2022-10-03T12:21:19.741Z,56.06
2022-10-03T12:22:17.904Z,54.99
2022-10-03T12:23:15.883Z,56.45
2022-10-03T12:24:15.873Z,52.29
2022-10-03T12:25:15.888Z,55.83
2022-10-03T12:26:15.863Z,54.83
2022-10-03T12:27:15.855Z,50.39
2022-10-03T12:28:15.919Z,53.18
2022-10-03T12:29:15.847Z,52.53
2022-10-03T12:30:15.856Z,49.89
2022-10-03T12:31:18.957Z,50.75
2022-10-03T12:32:16.883Z,54.23
2022-10-03T12:33:15.802Z,55.65
2022-10-03T12:34:15.805Z,57.41
2022-10-03T12:35:15.821Z,51.04
2022-10-03T12:36:15.784Z,55.32
2022-10-03T12:37:15.775Z,53.35
2022-10-03T12:38:15.768Z,53.61
2022-10-03T12:39:15.879Z,51.55
2022-10-03T12:40:15.785Z,49.20
2022-10-03T12:41:15.751Z,57.38
2022-10-03T12:42:15.734Z,55.27
2022-10-03T12:43:15.737Z,56.25
2022-10-03T12:44:15.719Z,53.38
2022-10-03T12:45:15.743Z,53.70
2022-10-03T12:46:15.785Z,53.84
2022-10-03T12:47:15.696Z,51.21
2022-10-03T12:48:15.689Z,52.01
2022-10-03T12:49:15.706Z,49.67
2022-10-03T12:50:15.705Z,50.38
2022-10-03T12:51:15.659Z,55.99
2022-10-03T12:52:15.656Z,53.18